createdAt,value
2023-08-17T00:00:23.374Z,5.40
2023-08-17T00:03:25.810Z,6.00
2023-08-17T00:06:28.326Z,6.57
2023-08-17T00:09:30.823Z,6.00
2023-08-17T00:12:33.369Z,6.70
2023-08-17T00:15:35.868Z,7.10
2023-08-17T00:18:38.274Z,6.93
2023-08-17T00:21:40.631Z,7.00
2023-08-17T00:24:45.507Z,7.53
2023-08-17T00:27:47.890Z,7.45
2023-08-17T00:30:53.392Z,6.80
2023-08-17T00:33:55.849Z,6.97
2023-08-17T00:36:58.205Z,7.43
2023-08-17T00:40:00.703Z,7.20
2023-08-17T00:43:03.161Z,7.77
2023-08-17T00:46:05.962Z,7.07
2023-08-17T00:49:11.157Z,7.38
2023-08-17T00:52:13.674Z,7.60
2023-08-17T00:55:18.575Z,7.60
2023-08-17T00:58:22.426Z,8.98
2023-08-17T01:01:25.242Z,9.00
2023-08-17T01:04:27.660Z,7.70
2023-08-17T01:07:30.159Z,8.10
2023-08-17T01:10:46.068Z,6.80
2023-08-17T01:14:03.689Z,10.27
2023-08-17T01:17:18.909Z,9.13
2023-08-17T01:20:24.273Z,7.65
2023-08-17T01:23:26.734Z,8.10
2023-08-17T01:26:29.135Z,7.65
2023-08-17T01:29:31.846Z,6.72
2023-08-17T01:32:44.846Z,6.25
2023-08-17T01:36:13.769Z,5.90
2023-08-17T01:39:18.079Z,6.35
2023-08-17T01:42:21.813Z,6.60
2023-08-17T01:45:24.365Z,6.67
2023-08-17T01:48:26.726Z,6.55
2023-08-17T01:51:29.152Z,6.13
2023-08-17T01:54:31.645Z,6.97
2023-08-17T01:57:34.031Z,6.90
2023-08-17T02:00:36.421Z,7.43
2023-08-17T02:03:38.870Z,6.38
2023-08-17T02:06:41.337Z,6.53
2023-08-17T02:09:44.256Z,7.90
2023-08-17T02:12:48.121Z,6.50
2023-08-17T02:15:50.537Z,7.40
2023-08-17T02:18:52.995Z,7.05
2023-08-17T02:21:55.401Z,7.60
2023-08-17T02:24:57.878Z,7.38
2023-08-17T02:28:01.106Z,7.03
2023-08-17T02:31:03.561Z,7.78
2023-08-17T02:34:06.597Z,7.85
2023-08-17T02:37:09.104Z,7.90
2023-08-17T02:40:11.925Z,8.77
2023-08-17T02:43:14.328Z,8.18
2023-08-17T02:46:16.716Z,8.83
2023-08-17T02:49:19.852Z,7.63
2023-08-17T02:52:22.220Z,7.05
2023-08-17T02:55:24.753Z,6.80
2023-08-17T02:58:27.180Z,7.30
2023-08-17T03:01:31.075Z,8.65
2023-08-17T03:04:34.087Z,7.65
2023-08-17T03:07:36.501Z,6.90
2023-08-17T03:10:39.416Z,7.82
2023-08-17T03:13:41.795Z,7.07
2023-08-17T03:16:44.208Z,7.63
2023-08-17T03:19:46.656Z,7.40
2023-08-17T03:22:49.086Z,7.75
2023-08-17T03:25:55.441Z,7.75
2023-08-17T03:28:58.422Z,7.60
2023-08-17T03:32:00.851Z,7.45
2023-08-17T03:35:03.470Z,7.28
2023-08-17T03:38:05.857Z,7.50
2023-08-17T03:41:08.524Z,7.10
2023-08-17T03:44:11.175Z,7.43
2023-08-17T03:47:13.526Z,7.60
2023-08-17T03:50:15.941Z,7.60
2023-08-17T03:53:18.329Z,8.15
2023-08-17T03:56:20.740Z,7.80
2023-08-17T03:59:23.208Z,7.32
2023-08-17T04:02:26.424Z,7.25
2023-08-17T04:05:29.051Z,7.05
2023-08-17T04:08:31.492Z,6.50
2023-08-17T04:11:36.578Z,8.05
2023-08-17T04:14:38.966Z,7.80
2023-08-17T04:17:41.426Z,8.13
2023-08-17T04:20:43.860Z,7.20
2023-08-17T04:23:46.506Z,7.68
2023-08-17T04:26:48.913Z,8.40
2023-08-17T04:29:51.467Z,8.00
2023-08-17T04:32:54.895Z,7.25
2023-08-17T04:35:57.309Z,6.97
2023-08-17T04:38:59.924Z,7.37
2023-08-17T04:42:04.246Z,7.50
2023-08-17T04:45:09.759Z,8.05
2023-08-17T04:48:15.909Z,8.40
2023-08-17T04:51:19.309Z,8.90
2023-08-17T04:54:21.725Z,7.88
2023-08-17T04:57:24.483Z,7.45
2023-08-17T05:00:31.661Z,8.18
2023-08-17T05:03:34.863Z,8.48
2023-08-17T05:06:39.699Z,8.07
2023-08-17T05:09:42.148Z,8.57
2023-08-17T05:12:44.787Z,10.38
2023-08-17T05:15:47.934Z,9.07
2023-08-17T05:18:51.101Z,29.07
2023-08-17T05:21:54.851Z,47.25
2023-08-17T05:24:57.908Z,53.65
2023-08-17T05:28:00.509Z,35.45
2023-08-17T05:31:07.221Z,59.78
2023-08-17T05:34:12.444Z,27.67
2023-08-17T05:37:16.706Z,32.95
2023-08-17T05:40:19.385Z,82.63
2023-08-17T05:43:21.773Z,47.20
2023-08-17T05:46:24.175Z,29.48
2023-08-17T05:49:26.585Z,10.03
2023-08-17T05:52:29.108Z,12.10
2023-08-17T05:55:31.511Z,14.25
2023-08-17T05:58:33.946Z,14.18
2023-08-17T06:01:37.131Z,9.95
2023-08-17T06:04:39.535Z,8.35
2023-08-17T06:07:42.082Z,8.55
2023-08-17T06:10:44.453Z,22.40
2023-08-17T06:13:46.841Z,28.27
2023-08-17T06:16:49.377Z,23.08
2023-08-17T06:19:51.890Z,17.07
2023-08-17T06:22:54.252Z,17.23
2023-08-17T06:25:59.928Z,35.67
2023-08-17T06:29:04.368Z,23.98
2023-08-17T06:32:07.546Z,14.63
2023-08-17T06:35:10.182Z,8.23
2023-08-17T06:38:13.183Z,7.68
2023-08-17T06:41:15.600Z,8.50
2023-08-17T06:44:18.015Z,9.20
2023-08-17T06:47:20.370Z,19.80
2023-08-17T06:50:22.775Z,11.93
2023-08-17T06:53:25.146Z,12.77
2023-08-17T06:56:27.520Z,14.30
2023-08-17T06:59:29.908Z,7.85
2023-08-17T07:02:46.606Z,8.88
2023-08-17T07:05:53.607Z,14.43
2023-08-17T07:08:56.190Z,12.27
2023-08-17T07:11:58.644Z,11.07
2023-08-17T07:15:01.075Z,11.25
2023-08-17T07:18:03.658Z,14.10
2023-08-17T07:21:06.058Z,16.73
2023-08-17T07:24:16.135Z,11.38
2023-08-17T07:27:18.511Z,28.13
2023-08-17T07:30:20.948Z,15.23
2023-08-17T07:33:23.413Z,11.50
2023-08-17T07:36:25.772Z,9.52
2023-08-17T07:39:28.268Z,9.23
2023-08-17T07:42:30.762Z,9.43
2023-08-17T07:45:33.218Z,9.07
2023-08-17T07:48:35.611Z,9.10
2023-08-17T07:51:37.987Z,9.80
2023-08-17T07:54:40.398Z,14.65
2023-08-17T07:57:42.794Z,11.70
2023-08-17T08:00:45.177Z,10.70
2023-08-17T08:03:47.774Z,9.95
2023-08-17T08:06:50.135Z,10.55
2023-08-17T08:09:52.490Z,11.07
2023-08-17T08:12:55.419Z,10.67
2023-08-17T08:15:59.882Z,10.77
2023-08-17T08:19:02.632Z,10.50
2023-08-17T08:22:05.117Z,11.90
2023-08-17T08:25:07.867Z,11.95
2023-08-17T08:28:10.429Z,12.40
2023-08-17T08:31:13.023Z,12.00
2023-08-17T08:34:15.565Z,11.50
2023-08-17T08:37:17.970Z,11.10
2023-08-17T08:40:21.312Z,10.55
2023-08-17T08:43:24.373Z,10.40
2023-08-17T08:46:31.088Z,11.80
2023-08-17T08:49:42.203Z,10.68
2023-08-17T08:53:07.362Z,10.20
2023-08-17T08:56:13.785Z,11.63
2023-08-17T08:59:17.887Z,11.52
2023-08-17T09:02:20.450Z,10.73
2023-08-17T09:05:23.535Z,12.15
2023-08-17T09:08:31.297Z,10.90
2023-08-17T09:11:33.682Z,10.32
2023-08-17T09:14:38.342Z,9.27
2023-08-17T09:17:40.860Z,10.07
2023-08-17T09:20:48.816Z,11.32
2023-08-17T09:27:01.619Z,10.55
2023-08-17T09:30:10.604Z,11.98
2023-08-17T09:33:13.020Z,11.50
2023-08-17T09:36:15.454Z,12.00
2023-08-17T09:39:19.196Z,10.07
2023-08-17T09:42:23.748Z,10.43
2023-08-17T09:45:28.652Z,10.13
2023-08-17T09:48:33.387Z,8.60
2023-08-17T09:51:36.283Z,8.88
2023-08-17T09:54:39.617Z,9.17
2023-08-17T09:57:43.161Z,8.45
2023-08-17T10:00:51.485Z,9.02
2023-08-17T10:03:56.757Z,8.13
2023-08-17T10:07:05.042Z,9.60
2023-08-17T10:10:08.517Z,7.63
2023-08-17T10:13:14.489Z,7.78
2023-08-17T10:16:34.524Z,6.67
2023-08-17T10:19:53.191Z,7.78
2023-08-17T10:23:02.124Z,7.50
2023-08-17T10:26:05.949Z,6.70
2023-08-17T10:29:15.472Z,6.75
2023-08-17T10:32:19.776Z,7.82
2023-08-17T10:35:22.489Z,8.25
2023-08-17T10:38:25.204Z,8.40
2023-08-17T10:41:27.625Z,7.35
2023-08-17T10:44:42.569Z,7.93
2023-08-17T10:47:45.125Z,8.47
2023-08-17T10:51:03.470Z,8.00
2023-08-17T10:54:06.536Z,7.38
2023-08-17T10:57:33.573Z,6.60
2023-08-17T11:00:37.649Z,6.55
2023-08-17T11:03:42.472Z,7.20
2023-08-17T11:06:46.249Z,6.80
2023-08-17T11:09:48.880Z,6.57
2023-08-17T11:12:57.929Z,7.00
2023-08-17T11:16:04.611Z,6.47
2023-08-17T11:19:13.614Z,4.93
2023-08-17T11:22:19.942Z,5.95
2023-08-17T11:25:22.747Z,5.03
2023-08-17T11:28:25.490Z,5.77
2023-08-17T11:31:27.914Z,5.93
2023-08-17T11:34:30.817Z,5.40
2023-08-17T11:37:34.004Z,5.85
2023-08-17T11:40:37.257Z,4.97
2023-08-17T11:43:39.633Z,5.85
2023-08-17T11:46:42.207Z,5.45
2023-08-17T11:49:48.311Z,6.43
2023-08-17T11:52:50.740Z,5.95
2023-08-17T11:55:56.285Z,5.38
2023-08-17T11:58:59.625Z,6.63
2023-08-17T12:02:02.088Z,5.97
2023-08-17T12:05:08.616Z,5.95
2023-08-17T12:08:11.340Z,6.05
2023-08-17T12:11:13.855Z,5.97
2023-08-17T12:14:16.326Z,6.47
2023-08-17T12:17:20.277Z,7.20
2023-08-17T12:20:23.042Z,7.30
2023-08-17T12:23:25.552Z,6.95
2023-08-17T12:26:28.826Z,6.45
2023-08-17T12:29:31.258Z,6.13
2023-08-17T12:32:33.662Z,6.75
2023-08-17T12:35:36.164Z,6.28
2023-08-17T12:38:43.162Z,6.38
2023-08-17T12:41:45.587Z,6.05
2023-08-17T12:44:47.951Z,5.35
2023-08-17T12:47:50.335Z,6.70
2023-08-17T12:50:52.759Z,6.27
2023-08-17T12:53:55.292Z,6.68
2023-08-17T12:56:59.507Z,6.82
2023-08-17T13:00:02.652Z,6.37
2023-08-17T13:03:05.550Z,5.90
2023-08-17T13:06:08.846Z,6.25
2023-08-17T13:09:12.315Z,6.43
2023-08-17T13:12:14.786Z,6.80
2023-08-17T13:15:17.322Z,7.63
2023-08-17T13:18:19.848Z,7.22
2023-08-17T13:21:22.208Z,7.60
2023-08-17T13:24:24.703Z,7.25
2023-08-17T13:27:27.201Z,6.35
2023-08-17T13:30:29.720Z,7.23
2023-08-17T13:33:32.275Z,7.38
2023-08-17T13:36:34.858Z,7.32
2023-08-17T13:39:37.263Z,7.63
2023-08-17T13:42:39.607Z,7.75
2023-08-17T13:45:42.121Z,7.60
2023-08-17T13:48:44.523Z,7.72
2023-08-17T13:51:46.896Z,7.13
2023-08-17T13:54:49.568Z,6.18
2023-08-17T13:57:53.972Z,6.10
2023-08-17T14:00:56.434Z,6.20
2023-08-17T14:03:58.896Z,5.97
2023-08-17T14:07:01.309Z,6.32
2023-08-17T14:10:09.024Z,6.28
2023-08-17T14:13:13.250Z,5.88
2023-08-17T14:16:15.770Z,6.22
2023-08-17T14:19:18.158Z,5.45
2023-08-17T14:22:20.560Z,5.30
2023-08-17T14:25:24.067Z,5.88
2023-08-17T14:28:27.703Z,5.50
2023-08-17T14:31:30.442Z,5.57
2023-08-17T14:34:32.860Z,6.00
2023-08-17T14:37:35.566Z,5.55
2023-08-17T14:40:42.793Z,5.45
2023-08-17T14:43:45.533Z,5.75
2023-08-17T14:46:47.916Z,5.57
2023-08-17T14:49:50.266Z,5.60
2023-08-17T14:52:52.671Z,5.57
2023-08-17T14:55:55.384Z,5.55
2023-08-17T14:58:57.847Z,5.20
2023-08-17T15:02:00.230Z,5.20
2023-08-17T15:05:02.777Z,5.57
2023-08-17T15:08:05.564Z,5.38
2023-08-17T15:11:07.984Z,5.57
2023-08-17T15:14:16.146Z,5.65
2023-08-17T15:17:18.921Z,5.70
2023-08-17T15:20:21.336Z,7.32
2023-08-17T15:23:23.691Z,5.20
2023-08-17T15:26:26.087Z,5.22
2023-08-17T15:29:28.676Z,5.72
2023-08-17T15:32:31.367Z,5.30
2023-08-17T15:35:33.767Z,5.50
2023-08-17T15:38:36.144Z,5.25
2023-08-17T15:41:38.608Z,5.95
2023-08-17T15:44:40.983Z,5.43
2023-08-17T15:47:43.333Z,5.78
2023-08-17T15:50:45.683Z,6.68
2023-08-17T15:53:48.046Z,5.97
2023-08-17T15:56:50.782Z,6.10
2023-08-17T15:59:53.541Z,5.80
2023-08-17T16:02:55.959Z,5.80
2023-08-17T16:05:58.506Z,6.45
2023-08-17T16:09:00.946Z,5.50
2023-08-17T16:12:03.610Z,5.80
2023-08-17T16:15:06.663Z,5.97
2023-08-17T16:18:09.142Z,6.10
2023-08-17T16:24:16.897Z,5.63
2023-08-17T16:27:19.278Z,5.40
2023-08-17T16:30:21.833Z,5.47
2023-08-17T16:33:24.528Z,5.27
2023-08-17T16:36:27.259Z,5.70
2023-08-17T16:39:29.877Z,5.35
2023-08-17T16:42:32.441Z,5.85
2023-08-17T16:45:35.094Z,5.05
2023-08-17T16:48:37.717Z,5.80
2023-08-17T16:51:41.142Z,5.70
2023-08-17T16:54:47.383Z,5.40
2023-08-17T16:57:50.466Z,5.30
2023-08-17T17:00:53.260Z,5.35
2023-08-17T17:03:55.729Z,5.20
2023-08-17T17:06:58.134Z,4.65
2023-08-17T17:10:00.504Z,5.07
2023-08-17T17:13:02.926Z,5.35
2023-08-17T17:16:05.428Z,5.18
2023-08-17T17:19:07.793Z,5.40
2023-08-17T17:22:10.179Z,5.05
2023-08-17T17:25:12.612Z,4.73
2023-08-17T17:28:14.995Z,4.80
2023-08-17T17:31:17.457Z,5.07
2023-08-17T17:34:20.701Z,5.17
2023-08-17T17:37:23.369Z,5.13
2023-08-17T17:40:25.788Z,5.05
2023-08-17T17:43:28.354Z,5.53
2023-08-17T17:46:30.961Z,4.90
2023-08-17T17:49:33.335Z,5.00
2023-08-17T17:52:35.844Z,5.65
2023-08-17T17:55:38.454Z,5.30
2023-08-17T17:58:40.885Z,5.32
2023-08-17T18:01:43.468Z,5.25
2023-08-17T18:04:45.898Z,5.50
2023-08-17T18:07:48.392Z,5.22
2023-08-17T18:10:51.052Z,5.47
2023-08-17T18:13:53.707Z,5.78
2023-08-17T18:16:56.115Z,5.70
2023-08-17T18:19:58.578Z,5.45
2023-08-17T18:23:01.030Z,5.20
2023-08-17T18:26:03.609Z,5.57
2023-08-17T18:29:06.601Z,5.60
2023-08-17T18:32:08.982Z,5.85
2023-08-17T18:35:11.622Z,5.80
2023-08-17T18:38:14.022Z,5.68
2023-08-17T18:41:16.854Z,6.55
2023-08-17T18:44:19.331Z,5.55
2023-08-17T18:47:23.000Z,5.63
2023-08-17T18:50:28.739Z,5.63
2023-08-17T18:53:31.141Z,6.00
2023-08-17T18:56:33.559Z,5.53
2023-08-17T18:59:36.207Z,6.05
2023-08-17T19:02:41.693Z,5.05
2023-08-17T19:05:44.231Z,5.70
2023-08-17T19:08:46.632Z,5.20
2023-08-17T19:11:49.031Z,6.30
2023-08-17T19:14:51.448Z,6.00
2023-08-17T19:17:53.891Z,5.90
2023-08-17T19:20:56.261Z,5.57
2023-08-17T19:23:58.651Z,6.15
2023-08-17T19:27:01.375Z,5.37
2023-08-17T19:30:04.332Z,5.85
2023-08-17T19:33:07.188Z,6.10
2023-08-17T19:36:09.859Z,5.30
2023-08-17T19:39:12.506Z,5.13
2023-08-17T19:42:14.923Z,5.25
2023-08-17T19:45:19.131Z,5.50
2023-08-17T19:48:21.666Z,5.20
2023-08-17T19:51:24.479Z,5.20
2023-08-17T19:54:26.922Z,5.90
2023-08-17T19:57:30.632Z,5.03
2023-08-17T20:00:33.349Z,5.40
2023-08-17T20:03:36.140Z,4.88
2023-08-17T20:06:39.033Z,4.70
2023-08-17T20:09:41.743Z,5.53
2023-08-17T20:12:44.190Z,5.32
2023-08-17T20:15:46.743Z,5.50
2023-08-17T20:18:49.533Z,5.30
2023-08-17T20:21:51.941Z,5.20
2023-08-17T20:24:54.628Z,5.75
2023-08-17T20:27:57.258Z,5.90
2023-08-17T20:31:00.057Z,6.32
2023-08-17T20:34:02.519Z,6.70
2023-08-17T20:37:05.175Z,6.40
2023-08-17T20:40:09.300Z,6.30
2023-08-17T20:43:12.239Z,6.82
2023-08-17T20:46:14.785Z,6.70
2023-08-17T20:49:17.317Z,6.13
2023-08-17T20:52:19.753Z,6.13
2023-08-17T20:55:23.518Z,6.15
2023-08-17T20:58:25.894Z,5.93
2023-08-17T21:01:28.332Z,6.00
2023-08-17T21:04:30.750Z,5.90
2023-08-17T21:07:33.438Z,6.07
2023-08-17T21:10:36.365Z,5.90
2023-08-17T21:13:39.332Z,5.80
2023-08-17T21:16:41.851Z,5.80
2023-08-17T21:19:44.839Z,6.13
2023-08-17T21:22:51.359Z,6.22
2023-08-17T21:25:53.811Z,5.85
2023-08-17T21:28:56.175Z,5.33
2023-08-17T21:31:58.520Z,6.07
2023-08-17T21:35:00.858Z,5.30
2023-08-17T21:38:04.596Z,6.17
2023-08-17T21:41:07.083Z,5.80
2023-08-17T21:44:09.520Z,5.50
2023-08-17T21:47:11.911Z,5.40
2023-08-17T21:50:14.297Z,5.65
2023-08-17T21:53:16.889Z,5.97
2023-08-17T21:56:19.291Z,6.55
2023-08-17T21:59:21.679Z,5.77
2023-08-17T22:02:24.066Z,6.13
2023-08-17T22:05:26.411Z,5.28
2023-08-17T22:08:28.752Z,6.17
2023-08-17T22:11:31.112Z,5.82
2023-08-17T22:14:33.515Z,5.28
2023-08-17T22:17:35.932Z,6.00
2023-08-17T22:20:41.323Z,5.70
2023-08-17T22:23:43.930Z,6.35
2023-08-17T22:26:46.318Z,6.60
2023-08-17T22:29:48.691Z,5.63
2023-08-17T22:32:51.136Z,5.75
2023-08-17T22:35:53.547Z,6.18
2023-08-17T22:38:56.059Z,6.10
2023-08-17T22:41:58.497Z,6.07
2023-08-17T22:45:00.893Z,5.43
2023-08-17T22:48:03.499Z,6.07
2023-08-17T22:51:05.912Z,5.93
2023-08-17T22:54:11.705Z,5.82
2023-08-17T22:57:14.061Z,5.80
2023-08-17T23:00:16.546Z,5.67
2023-08-17T23:03:18.930Z,6.10
2023-08-17T23:06:21.477Z,5.75
2023-08-17T23:09:23.914Z,6.10
2023-08-17T23:12:26.266Z,5.53
2023-08-17T23:15:28.986Z,6.03
2023-08-17T23:18:31.465Z,5.68
2023-08-17T23:21:33.831Z,5.75
2023-08-17T23:24:38.517Z,5.65
2023-08-17T23:27:41.310Z,6.28
2023-08-17T23:30:43.768Z,6.33
2023-08-17T23:33:46.152Z,6.00
2023-08-17T23:36:48.569Z,5.82
2023-08-17T23:39:51.022Z,6.30
2023-08-17T23:42:53.534Z,6.85
2023-08-17T23:45:55.967Z,6.20
2023-08-17T23:48:58.445Z,5.97
2023-08-17T23:52:00.885Z,5.95
2023-08-17T23:55:04.450Z,6.07
2023-08-17T23:58:06.864Z,5.90
